Time;durP1;ratioP1;P1;durP2;ratioP2;P2;SDS_P1;SDS_P2;PMS_P1;PMS_P2;Temp;Humidity;BMP_temperature;BMP_pressure;BME280_temperature;BME280_humidity;BME280_pressure;Samples;Min_cycle;Max_cycle;Signal;HPM_P1;HPM_P2
2022/11/19 00:02:05;;;;;;;15.50;10.40;;;;;;;;;;4974342;28;20256;-89
2022/11/19 00:04:35;;;;;;;15.40;11.77;;;;;;;;;;4973315;28;20248;-88
2022/11/19 00:07:03;;;;;;;19.83;15.07;;;;;;;;;;4973884;28;20225;-88
2022/11/19 00:09:31;;;;;;;16.40;12.30;;;;;;;;;;4973605;28;20304;-89
2022/11/19 00:14:46;;;;;;;16.80;11.17;;;;;;;;;;4973293;28;20228;-89
2022/11/19 00:17:14;;;;;;;21.10;14.63;;;;;;;;;;4973574;28;20221;-89
2022/11/19 00:19:44;;;;;;;11.40;8.60;;;;;;;;;;4973523;28;20264;-89
2022/11/19 00:22:12;;;;;;;10.97;8.93;;;;;;;;;;4973443;28;20209;-88
2022/11/19 00:24:40;;;;;;;15.77;10.00;;;;;;;;;;4961206;28;20224;-89
2022/11/19 00:27:09;;;;;;;22.73;14.53;;;;;;;;;;4973446;28;20235;-89
2022/11/19 00:29:37;;;;;;;14.13;9.90;;;;;;;;;;4974340;28;20209;-89
2022/11/19 00:32:05;;;;;;;13.67;10.00;;;;;;;;;;4973324;28;20263;-89
2022/11/19 00:34:34;;;;;;;13.17;8.00;;;;;;;;;;4974522;28;20229;-88
2022/11/19 00:37:04;;;;;;;14.60;11.53;;;;;;;;;;4973456;28;20197;-89
2022/11/19 00:39:32;;;;;;;16.37;12.17;;;;;;;;;;4973436;28;20201;-89
2022/11/19 00:42:00;;;;;;;17.47;12.93;;;;;;;;;;4973390;28;20225;-88
2022/11/19 00:44:29;;;;;;;13.00;9.97;;;;;;;;;;4973093;28;20216;-90
2022/11/19 00:47:04;;;;;;;15.23;10.97;;;;;;;;;;4973345;28;20223;-88
2022/11/19 00:49:32;;;;;;;11.80;7.70;;;;;;;;;;4973617;28;20201;-89
2022/11/19 00:52:01;;;;;;;14.87;11.63;;;;;;;;;;4974028;28;20219;-88
2022/11/19 00:54:31;;;;;;;20.30;14.43;;;;;;;;;;4973247;28;20205;-88
2022/11/19 00:56:59;;;;;;;26.43;19.07;;;;;;;;;;4972102;28;20230;-89
2022/11/19 00:59:27;;;;;;;23.77;14.90;;;;;;;;;;4974233;28;20259;-89
2022/11/19 01:01:56;;;;;;;19.27;14.83;;;;;;;;;;4961420;28;20197;-89
2022/11/19 01:04:24;;;;;;;14.20;9.27;;;;;;;;;;4973021;28;20249;-89
2022/11/19 01:06:53;;;;;;;22.37;15.43;;;;;;;;;;4974980;28;20197;-90
2022/11/19 01:09:21;;;;;;;11.77;9.23;;;;;;;;;;4976689;28;20212;-88
2022/11/19 01:11:51;;;;;;;23.53;15.73;;;;;;;;;;4977104;28;20271;-88
2022/11/19 01:14:20;;;;;;;21.57;15.63;;;;;;;;;;4976856;28;20292;-88
2022/11/19 01:16:48;;;;;;;22.53;15.10;;;;;;;;;;4977855;28;20197;-88
2022/11/19 01:19:17;;;;;;;19.70;13.43;;;;;;;;;;4977600;28;20193;-88
2022/11/19 01:21:45;;;;;;;14.77;12.77;;;;;;;;;;4976749;28;20201;-89
2022/11/19 01:24:14;;;;;;;28.93;20.87;;;;;;;;;;4976436;28;20251;-88
2022/11/19 01:26:42;;;;;;;22.00;17.67;;;;;;;;;;4977453;28;20208;-88
2022/11/19 01:29:14;;;;;;;19.87;14.17;;;;;;;;;;4964486;28;20219;-89
2022/11/19 01:31:43;;;;;;;19.03;13.63;;;;;;;;;;4976513;28;20231;-88
2022/11/19 01:34:12;;;;;;;17.83;13.43;;;;;;;;;;4976108;28;20240;-87
2022/11/19 01:36:40;;;;;;;16.77;11.60;;;;;;;;;;4976275;28;20216;-89
2022/11/19 01:39:08;;;;;;;21.60;13.07;;;;;;;;;;4976070;28;20197;-88
2022/11/19 01:41:37;;;;;;;22.50;16.83;;;;;;;;;;4976159;28;20204;-88
2022/11/19 01:44:06;;;;;;;26.03;17.07;;;;;;;;;;4976324;28;20213;-87
2022/11/19 01:46:37;;;;;;;20.77;15.93;;;;;;;;;;4976455;28;20212;-87
2022/11/19 01:49:07;;;;;;;23.30;17.23;;;;;;;;;;4976651;28;20274;-88
2022/11/19 01:51:36;;;;;;;18.37;11.80;;;;;;;;;;4975780;28;20228;-88
2022/11/19 01:54:08;;;;;;;22.17;17.87;;;;;;;;;;4976469;28;20216;-88
2022/11/19 01:56:37;;;;;;;23.83;18.50;;;;;;;;;;4977212;28;20197;-88
2022/11/19 01:59:07;;;;;;;21.73;17.40;;;;;;;;;;4976992;28;20240;-89
2022/11/19 02:01:37;;;;;;;24.37;20.03;;;;;;;;;;4976139;28;20193;-89
2022/11/19 02:04:07;;;;;;;21.23;16.63;;;;;;;;;;4976284;28;20235;-89
2022/11/19 02:06:36;;;;;;;21.07;15.13;;;;;;;;;;4976694;28;20200;-89
2022/11/19 02:09:05;;;;;;;12.80;7.53;;;;;;;;;;4976933;28;20229;-89
2022/11/19 02:11:56;;;;;;;21.53;15.57;;;;;;;;;;4975441;28;20201;-89
2022/11/19 02:14:28;;;;;;;14.77;9.33;;;;;;;;;;4975745;28;20251;-88
2022/11/19 02:17:03;;;;;;;18.63;13.77;;;;;;;;;;4975620;28;20207;-89
2022/11/19 02:19:49;;;;;;;19.77;14.47;;;;;;;;;;4976064;28;20213;-89
2022/11/19 02:22:29;;;;;;;14.73;11.90;;;;;;;;;;4975218;28;20204;-88
2022/11/19 02:25:02;;;;;;;20.13;14.90;;;;;;;;;;4975722;28;20229;-89
2022/11/19 02:27:38;;;;;;;18.77;15.43;;;;;;;;;;4976404;28;20197;-89
2022/11/19 02:30:16;;;;;;;23.63;18.63;;;;;;;;;;4976595;28;20337;-89
2022/11/19 02:32:54;;;;;;;16.93;11.83;;;;;;;;;;4962961;28;20220;-88
2022/11/19 02:35:25;;;;;;;24.43;18.20;;;;;;;;;;4975171;28;20237;-89
2022/11/19 02:37:59;;;;;;;20.93;16.23;;;;;;;;;;4975505;28;20197;-87
2022/11/19 02:40:29;;;;;;;15.30;12.00;;;;;;;;;;4975456;28;20201;-89
2022/11/19 02:43:02;;;;;;;18.10;14.03;;;;;;;;;;4975247;28;20207;-89
2022/11/19 02:45:34;;;;;;;14.10;11.17;;;;;;;;;;4975063;28;20220;-88
2022/11/19 02:48:05;;;;;;;21.80;16.77;;;;;;;;;;4975216;28;20224;-88
2022/11/19 02:50:36;;;;;;;25.97;18.10;;;;;;;;;;4975019;28;20240;-88
2022/11/19 02:53:05;;;;;;;15.63;11.17;;;;;;;;;;4974677;28;20220;-88
2022/11/19 02:55:33;;;;;;;13.57;9.30;;;;;;;;;;4975005;28;20197;-88
2022/11/19 02:58:04;;;;;;;8.63;6.97;;;;;;;;;;4975651;28;20216;-89
2022/11/19 03:06:11;;;;;;;23.20;19.50;;;;;;;;;;4974598;28;20205;-88
2022/11/19 03:08:40;;;;;;;19.67;17.10;;;;;;;;;;4975741;28;20205;-89
2022/11/19 03:11:13;;;;;;;26.37;23.57;;;;;;;;;;4974633;28;20205;-89
2022/11/19 03:16:41;;;;;;;17.53;12.40;;;;;;;;;;4975835;28;20209;-89
2022/11/19 03:19:14;;;;;;;18.50;15.00;;;;;;;;;;4974725;28;20336;-89
2022/11/19 03:21:47;;;;;;;21.37;14.87;;;;;;;;;;4975614;28;20207;-89
2022/11/19 03:24:19;;;;;;;14.23;12.77;;;;;;;;;;4974405;28;20200;-89
2022/11/19 03:26:51;;;;;;;13.63;11.53;;;;;;;;;;4974346;28;20209;-89
2022/11/19 03:29:20;;;;;;;13.60;10.63;;;;;;;;;;4965870;28;20301;-89
2022/11/19 03:31:53;;;;;;;9.33;7.57;;;;;;;;;;4971900;28;20276;-88
2022/11/19 03:34:23;;;;;;;14.67;11.37;;;;;;;;;;4973443;28;20282;-89
2022/11/19 03:36:53;;;;;;;14.50;10.67;;;;;;;;;;4975569;28;20201;-88
2022/11/19 03:39:22;;;;;;;14.43;10.73;;;;;;;;;;4974124;28;20248;-89
2022/11/19 03:41:52;;;;;;;12.07;9.87;;;;;;;;;;4970999;28;20209;-89
2022/11/19 03:44:22;;;;;;;8.43;7.53;;;;;;;;;;4971408;28;20264;-88
2022/11/19 03:46:55;;;;;;;12.23;9.00;;;;;;;;;;4974900;28;20226;-89
2022/11/19 03:49:27;;;;;;;15.77;12.13;;;;;;;;;;4975221;28;20200;-89
2022/11/19 03:51:57;;;;;;;15.50;12.77;;;;;;;;;;4975010;28;20232;-89
2022/11/19 03:54:26;;;;;;;15.17;11.07;;;;;;;;;;4975057;28;20209;-90
2022/11/19 03:56:55;;;;;;;13.53;10.73;;;;;;;;;;4974138;28;20215;-89
2022/11/19 03:59:24;;;;;;;5.50;4.93;;;;;;;;;;4974044;28;20195;-88
2022/11/19 04:01:59;;;;;;;10.50;8.50;;;;;;;;;;4974912;28;20224;-89
2022/11/19 04:04:36;;;;;;;11.77;9.10;;;;;;;;;;4973504;28;20250;-89
2022/11/19 04:07:09;;;;;;;15.57;12.93;;;;;;;;;;4974093;28;20223;-88
2022/11/19 04:09:38;;;;;;;15.43;12.07;;;;;;;;;;4973447;28;20271;-90
2022/11/19 04:12:07;;;;;;;15.80;10.93;;;;;;;;;;4973619;28;20228;-89
2022/11/19 04:14:35;;;;;;;10.43;8.90;;;;;;;;;;4973842;28;20256;-89
2022/11/19 04:17:05;;;;;;;5.90;5.40;;;;;;;;;;4973897;28;20200;-87
2022/11/19 04:19:34;;;;;;;16.77;11.77;;;;;;;;;;4973375;28;20228;-90
2022/11/19 04:22:02;;;;;;;9.13;5.40;;;;;;;;;;4973552;28;20240;-89
2022/11/19 04:24:30;;;;;;;14.67;9.13;;;;;;;;;;4974573;28;20208;-90
2022/11/19 04:26:59;;;;;;;9.53;8.07;;;;;;;;;;4973705;28;20211;-89
2022/11/19 04:29:27;;;;;;;13.47;7.60;;;;;;;;;;4973623;28;20213;-90
2022/11/19 04:31:56;;;;;;;10.17;7.87;;;;;;;;;;4973238;28;20262;-89
2022/11/19 04:34:25;;;;;;;8.80;6.57;;;;;;;;;;4973341;28;20264;-89
2022/11/19 04:36:54;;;;;;;15.80;9.97;;;;;;;;;;4974481;28;20217;-88
2022/11/19 04:39:22;;;;;;;11.30;9.47;;;;;;;;;;4973051;28;20208;-90
2022/11/19 04:41:51;;;;;;;13.13;10.40;;;;;;;;;;4974001;28;20208;-90
2022/11/19 04:44:19;;;;;;;14.73;11.33;;;;;;;;;;4973114;28;20233;-90
2022/11/19 04:46:47;;;;;;;11.90;9.23;;;;;;;;;;4973460;28;20227;-89
2022/11/19 04:49:16;;;;;;;9.80;8.23;;;;;;;;;;4973482;28;20208;-90
2022/11/19 04:51:46;;;;;;;9.07;7.43;;;;;;;;;;4973432;28;20213;-90
2022/11/19 04:54:14;;;;;;;12.47;11.00;;;;;;;;;;4973994;28;20241;-90
2022/11/19 04:56:42;;;;;;;11.10;9.10;;;;;;;;;;4972941;28;20199;-90
2022/11/19 04:59:11;;;;;;;13.57;11.20;;;;;;;;;;4973009;28;20226;-90
2022/11/19 05:01:39;;;;;;;9.83;8.83;;;;;;;;;;4974077;28;20211;-89
2022/11/19 05:04:08;;;;;;;10.70;9.40;;;;;;;;;;4974081;28;20225;-90
2022/11/19 05:06:36;;;;;;;10.50;8.90;;;;;;;;;;4973283;28;20277;-90
2022/11/19 05:09:06;;;;;;;11.97;10.07;;;;;;;;;;4973023;28;20195;-88
2022/11/19 05:11:34;;;;;;;12.23;10.00;;;;;;;;;;4973072;28;20204;-88
2022/11/19 05:14:02;;;;;;;11.77;9.43;;;;;;;;;;4972854;28;20313;-88
2022/11/19 05:16:31;;;;;;;10.87;7.00;;;;;;;;;;4973995;28;20202;-88
2022/11/19 05:18:59;;;;;;;8.37;7.50;;;;;;;;;;4973153;28;20237;-89
2022/11/19 05:21:27;;;;;;;5.50;5.07;;;;;;;;;;4972833;28;20234;-89
2022/11/19 05:23:56;;;;;;;10.33;8.67;;;;;;;;;;4972820;28;20640;-89
2022/11/19 05:26:26;;;;;;;7.83;6.30;;;;;;;;;;4972811;28;20211;-89
2022/11/19 05:28:54;;;;;;;10.23;8.73;;;;;;;;;;4972824;28;20210;-89
2022/11/19 05:31:22;;;;;;;7.43;6.63;;;;;;;;;;4972969;28;20213;-89
2022/11/19 05:33:51;;;;;;;7.40;6.40;;;;;;;;;;4963994;28;20251;-89
2022/11/19 05:36:19;;;;;;;8.53;6.67;;;;;;;;;;4972982;28;20216;-88
2022/11/19 05:38:47;;;;;;;10.10;7.23;;;;;;;;;;4972894;28;20229;-88
2022/11/19 05:41:16;;;;;;;7.73;6.90;;;;;;;;;;4972672;28;20269;-88
2022/11/19 05:43:46;;;;;;;8.80;7.67;;;;;;;;;;4972939;28;20254;-89
2022/11/19 05:46:14;;;;;;;7.00;5.40;;;;;;;;;;4973694;28;20207;-89
2022/11/19 05:48:42;;;;;;;6.30;5.13;;;;;;;;;;4972658;28;20208;-88
2022/11/19 05:51:13;;;;;;;8.20;6.43;;;;;;;;;;4972701;28;20200;-88
2022/11/19 05:53:42;;;;;;;6.97;4.03;;;;;;;;;;4974053;28;20273;-89
2022/11/19 05:56:11;;;;;;;6.60;4.57;;;;;;;;;;4976197;28;20213;-89
2022/11/19 05:58:39;;;;;;;5.63;4.33;;;;;;;;;;4975807;28;20208;-89
2022/11/19 06:01:09;;;;;;;6.17;5.57;;;;;;;;;;4976280;28;20199;-89
2022/11/19 06:03:37;;;;;;;9.53;5.40;;;;;;;;;;4976881;28;20276;-89
2022/11/19 06:06:06;;;;;;;9.00;6.83;;;;;;;;;;4976336;28;20267;-88
2022/11/19 06:08:34;;;;;;;5.57;4.30;;;;;;;;;;4977288;28;20281;-89
2022/11/19 06:11:03;;;;;;;5.80;4.90;;;;;;;;;;4975792;28;20226;-89
2022/11/19 06:13:31;;;;;;;5.23;4.03;;;;;;;;;;4975065;28;20216;-89
2022/11/19 06:15:59;;;;;;;6.83;5.70;;;;;;;;;;4976127;28;20297;-89
2022/11/19 06:18:29;;;;;;;6.53;5.37;;;;;;;;;;4976014;28;20197;-88
2022/11/19 06:20:58;;;;;;;7.00;5.40;;;;;;;;;;4963368;28;20211;-89
2022/11/19 06:23:26;;;;;;;8.20;6.60;;;;;;;;;;4976983;28;20253;-90
2022/11/19 06:25:55;;;;;;;6.73;5.53;;;;;;;;;;4975047;28;20215;-90
2022/11/19 06:28:23;;;;;;;8.57;7.43;;;;;;;;;;4975464;28;20216;-90
2022/11/19 06:30:52;;;;;;;9.47;6.73;;;;;;;;;;4975499;28;20225;-90
2022/11/19 06:33:20;;;;;;;8.00;5.47;;;;;;;;;;4991548;28;20206;-89
2022/11/19 06:35:50;;;;;;;10.53;7.20;;;;;;;;;;4975217;28;20215;-90
2022/11/19 06:38:19;;;;;;;8.20;6.10;;;;;;;;;;4976301;28;20243;-89
2022/11/19 06:40:47;;;;;;;12.93;6.40;;;;;;;;;;4972009;28;20209;-89
2022/11/19 06:43:15;;;;;;;10.50;8.00;;;;;;;;;;4966507;28;20234;-90
2022/11/19 06:45:44;;;;;;;9.50;8.43;;;;;;;;;;4975327;28;20202;-89
2022/11/19 06:48:12;;;;;;;6.77;6.07;;;;;;;;;;4975290;28;20234;-88
2022/11/19 06:50:40;;;;;;;6.00;5.07;;;;;;;;;;4976096;28;20206;-89
2022/11/19 06:53:10;;;;;;;10.17;6.37;;;;;;;;;;4975010;28;20250;-89
2022/11/19 06:55:39;;;;;;;4.10;3.77;;;;;;;;;;4974488;28;20204;-90
2022/11/19 06:58:07;;;;;;;7.53;5.20;;;;;;;;;;4962330;28;20234;-89
2022/11/19 07:00:36;;;;;;;7.67;6.70;;;;;;;;;;4974954;28;20265;-90
2022/11/19 07:03:04;;;;;;;10.93;7.63;;;;;;;;;;4972203;28;20205;-89
2022/11/19 07:05:33;;;;;;;5.63;4.93;;;;;;;;;;4974591;28;20205;-90
2022/11/19 07:08:01;;;;;;;6.77;5.53;;;;;;;;;;4974616;28;20196;-89
2022/11/19 07:10:32;;;;;;;10.17;9.17;;;;;;;;;;4966751;28;20210;-90
2022/11/19 07:13:01;;;;;;;7.93;5.07;;;;;;;;;;4971668;28;20212;-89
2022/11/19 07:15:29;;;;;;;8.70;5.93;;;;;;;;;;4974914;28;20227;-89
2022/11/19 07:17:58;;;;;;;8.63;5.67;;;;;;;;;;4974441;28;20292;-89
2022/11/19 07:20:26;;;;;;;7.20;5.67;;;;;;;;;;4975680;28;20205;-89
2022/11/19 07:22:54;;;;;;;12.30;11.00;;;;;;;;;;4962911;28;20204;-90
2022/11/19 07:25:26;;;;;;;9.00;8.00;;;;;;;;;;4974387;28;20281;-90
2022/11/19 07:27:59;;;;;;;11.50;9.37;;;;;;;;;;4974699;28;20222;-89
2022/11/19 07:30:27;;;;;;;10.20;7.57;;;;;;;;;;4974540;28;20273;-90
2022/11/19 07:32:56;;;;;;;9.10;8.10;;;;;;;;;;4975184;28;20292;-88
2022/11/19 07:35:24;;;;;;;8.87;7.43;;;;;;;;;;4974183;28;20245;-90
2022/11/19 07:37:53;;;;;;;7.80;5.13;;;;;;;;;;4961639;28;20268;-89
2022/11/19 07:40:21;;;;;;;10.20;6.80;;;;;;;;;;4975007;28;20201;-89
2022/11/19 07:42:48;;;;;;;12.13;6.33;;;;;;;;;;4974165;28;20193;-89
2022/11/19 07:45:19;;;;;;;12.87;7.90;;;;;;;;;;4973794;28;20284;-89
2022/11/19 07:47:47;;;;;;;9.47;6.83;;;;;;;;;;4974479;28;20209;-89
2022/11/19 07:50:16;;;;;;;10.17;7.23;;;;;;;;;;4973850;28;20231;-89
2022/11/19 07:52:45;;;;;;;8.40;7.10;;;;;;;;;;4973979;28;20208;-90
2022/11/19 07:55:14;;;;;;;10.67;8.40;;;;;;;;;;4974030;28;20244;-89
2022/11/19 07:57:42;;;;;;;7.80;6.13;;;;;;;;;;4974004;28;20244;-89
2022/11/19 08:00:11;;;;;;;9.13;7.70;;;;;;;;;;4973749;28;20202;-89
2022/11/19 08:02:41;;;;;;;10.97;9.87;;;;;;;;;;4973850;28;20251;-88
2022/11/19 08:05:10;;;;;;;10.10;7.93;;;;;;;;;;4973451;28;20219;-89
2022/11/19 08:07:38;;;;;;;11.90;9.00;;;;;;;;;;4973742;28;20235;-89
2022/11/19 08:10:07;;;;;;;6.20;5.57;;;;;;;;;;4973332;28;20206;-89
2022/11/19 08:12:36;;;;;;;10.43;7.43;;;;;;;;;;4974827;28;20227;-89
2022/11/19 08:15:04;;;;;;;11.13;7.93;;;;;;;;;;4970515;28;20265;-88
2022/11/19 08:20:20;;;;;;;11.60;9.93;;;;;;;;;;4974574;28;20220;-89
2022/11/19 08:22:48;;;;;;;9.93;8.07;;;;;;;;;;4974458;28;20209;-89
2022/11/19 08:25:17;;;;;;;6.93;6.23;;;;;;;;;;4973743;28;20205;-89
2022/11/19 08:27:45;;;;;;;10.60;8.57;;;;;;;;;;4970232;28;20203;-89
2022/11/19 08:30:14;;;;;;;9.73;7.17;;;;;;;;;;4961004;28;20245;-88
2022/11/19 08:32:42;;;;;;;11.20;8.87;;;;;;;;;;4972245;28;20235;-90
2022/11/19 08:35:11;;;;;;;12.60;9.37;;;;;;;;;;4973581;28;20257;-89
2022/11/19 08:37:40;;;;;;;14.07;8.73;;;;;;;;;;4974371;28;20248;-89
2022/11/19 08:40:09;;;;;;;11.33;8.83;;;;;;;;;;4973345;28;20209;-90
2022/11/19 08:45:25;;;;;;;8.67;6.67;;;;;;;;;;4973016;28;20202;-90
2022/11/19 08:47:54;;;;;;;12.50;9.23;;;;;;;;;;4989485;28;20250;-90
2022/11/19 08:50:23;;;;;;;10.90;8.83;;;;;;;;;;4972864;28;20294;-89
2022/11/19 08:53:00;;;;;;;8.30;6.83;;;;;;;;;;4973542;28;20232;-89
2022/11/19 08:55:29;;;;;;;12.50;11.20;;;;;;;;;;4970066;28;20217;-90
2022/11/19 08:58:01;;;;;;;13.87;9.73;;;;;;;;;;4981488;28;20257;-89
2022/11/19 09:00:30;;;;;;;11.23;7.90;;;;;;;;;;4960554;28;20295;-89
2022/11/19 09:02:58;;;;;;;10.27;7.50;;;;;;;;;;4973433;28;20210;-90
2022/11/19 09:05:27;;;;;;;13.07;8.90;;;;;;;;;;4974228;28;20273;-90
2022/11/19 09:07:56;;;;;;;9.90;7.00;;;;;;;;;;4973959;28;20253;-89
2022/11/19 09:10:26;;;;;;;9.03;7.30;;;;;;;;;;4973996;28;20215;-90
2022/11/19 09:12:54;;;;;;;6.77;5.33;;;;;;;;;;4973363;28;20264;-89
2022/11/19 09:15:22;;;;;;;7.40;5.03;;;;;;;;;;4972776;28;20233;-88
2022/11/19 09:17:51;;;;;;;10.17;8.43;;;;;;;;;;4974004;28;20209;-90
2022/11/19 09:20:19;;;;;;;7.70;6.87;;;;;;;;;;4973009;28;20214;-90
2022/11/19 09:22:48;;;;;;;10.43;8.27;;;;;;;;;;4972662;28;20192;-89
2022/11/19 09:25:16;;;;;;;9.40;7.77;;;;;;;;;;4974260;28;20256;-90
2022/11/19 09:27:46;;;;;;;8.03;7.20;;;;;;;;;;4974507;28;20197;-90
2022/11/19 09:30:15;;;;;;;8.90;6.17;;;;;;;;;;4976780;28;20295;-90
2022/11/19 09:32:43;;;;;;;4.80;4.40;;;;;;;;;;4977690;28;20269;-91
2022/11/19 09:35:12;;;;;;;9.67;5.70;;;;;;;;;;4976218;28;20261;-90
2022/11/19 09:37:41;;;;;;;12.17;9.63;;;;;;;;;;4976333;28;20287;-90
2022/11/19 09:40:12;;;;;;;7.87;5.83;;;;;;;;;;4977533;28;20233;-89
2022/11/19 09:42:45;;;;;;;10.57;7.43;;;;;;;;;;4976150;28;20279;-89
2022/11/19 09:45:18;;;;;;;8.97;7.50;;;;;;;;;;4976636;28;20262;-89
2022/11/19 09:48:02;;;;;;;8.50;5.80;;;;;;;;;;4976657;28;20213;-90
2022/11/19 09:50:31;;;;;;;13.07;8.90;;;;;;;;;;4976032;28;20203;-90
2022/11/19 09:53:02;;;;;;;14.20;8.97;;;;;;;;;;4966777;28;20213;-90
2022/11/19 09:55:32;;;;;;;9.30;7.27;;;;;;;;;;4969984;28;20223;-90
2022/11/19 09:58:00;;;;;;;6.80;5.60;;;;;;;;;;4970005;28;20205;-89
2022/11/19 10:00:31;;;;;;;10.23;8.43;;;;;;;;;;4977535;28;20285;-89
2022/11/19 10:03:01;;;;;;;7.00;6.23;;;;;;;;;;4992027;28;20207;-89
2022/11/19 10:05:32;;;;;;;5.70;5.00;;;;;;;;;;4965478;28;20224;-89
2022/11/19 10:08:08;;;;;;;10.03;8.60;;;;;;;;;;4975701;28;20220;-90
2022/11/19 10:10:40;;;;;;;6.30;5.67;;;;;;;;;;4977210;28;20206;-89
2022/11/19 10:13:36;;;;;;;8.57;7.70;;;;;;;;;;4976773;28;20203;-89
2022/11/19 10:16:17;;;;;;;9.13;8.23;;;;;;;;;;4919961;28;20298;-89
2022/11/19 10:18:49;;;;;;;8.10;6.50;;;;;;;;;;4982064;28;20204;-88
2022/11/19 10:21:20;;;;;;;6.93;6.23;;;;;;;;;;4972278;28;20242;-89
2022/11/19 10:23:51;;;;;;;8.60;7.17;;;;;;;;;;4964858;28;20215;-89
2022/11/19 10:26:24;;;;;;;8.40;7.37;;;;;;;;;;4974149;28;20215;-89
2022/11/19 10:28:55;;;;;;;9.20;7.50;;;;;;;;;;4976526;28;20214;-89
2022/11/19 10:31:28;;;;;;;5.57;5.10;;;;;;;;;;4960921;28;20270;-89
2022/11/19 10:34:00;;;;;;;8.43;7.20;;;;;;;;;;4970898;28;20211;-89
2022/11/19 10:36:31;;;;;;;9.90;6.43;;;;;;;;;;4972404;28;20233;-89
2022/11/19 10:39:03;;;;;;;10.20;7.53;;;;;;;;;;4971821;28;20206;-89
2022/11/19 10:41:34;;;;;;;11.13;9.00;;;;;;;;;;4976359;28;20203;-89
2022/11/19 10:44:06;;;;;;;9.23;6.83;;;;;;;;;;4971954;28;20204;-90
2022/11/19 10:46:36;;;;;;;7.60;5.87;;;;;;;;;;4967480;28;20254;-89
2022/11/19 10:49:07;;;;;;;5.93;5.27;;;;;;;;;;4975336;28;20216;-89
2022/11/19 10:51:40;;;;;;;6.20;5.63;;;;;;;;;;4975174;28;20212;-90
2022/11/19 10:54:16;;;;;;;7.23;5.47;;;;;;;;;;4959924;28;20264;-89
2022/11/19 10:56:45;;;;;;;6.50;5.70;;;;;;;;;;4970439;28;20251;-90
2022/11/19 10:59:15;;;;;;;6.73;6.07;;;;;;;;;;4966694;28;20215;-89
2022/11/19 11:01:46;;;;;;;5.30;4.80;;;;;;;;;;4971114;28;20279;-89
2022/11/19 11:04:17;;;;;;;6.00;5.17;;;;;;;;;;4975021;28;20279;-89
2022/11/19 11:06:50;;;;;;;4.60;4.13;;;;;;;;;;4962821;28;20231;-89
2022/11/19 11:09:28;;;;;;;7.77;5.07;;;;;;;;;;4974736;28;20215;-88
2022/11/19 11:14:53;;;;;;;5.33;4.67;;;;;;;;;;4974655;28;20270;-90
2022/11/19 11:17:25;;;;;;;4.97;4.47;;;;;;;;;;4974683;28;20222;-89
2022/11/19 11:19:58;;;;;;;6.67;5.17;;;;;;;;;;4974929;28;20195;-90
2022/11/19 11:22:26;;;;;;;5.73;5.13;;;;;;;;;;4962129;28;20205;-89
2022/11/19 11:24:55;;;;;;;4.70;3.53;;;;;;;;;;4978046;28;20207;-90
2022/11/19 11:27:29;;;;;;;5.63;5.10;;;;;;;;;;4969726;28;20200;-90
2022/11/19 11:30:16;;;;;;;6.03;4.23;;;;;;;;;;4967592;28;20208;-89
2022/11/19 11:32:46;;;;;;;3.30;3.00;;;;;;;;;;4972879;28;20209;-91
2022/11/19 11:35:31;;;;;;;4.33;3.93;;;;;;;;;;4980825;28;20275;-89
2022/11/19 11:38:03;;;;;;;5.57;5.03;;;;;;;;;;4966402;28;20200;-88
2022/11/19 11:40:32;;;;;;;4.60;4.20;;;;;;;;;;4966949;28;20270;-87
2022/11/19 11:43:00;;;;;;;6.43;5.30;;;;;;;;;;4965930;28;20267;-89
2022/11/19 11:45:31;;;;;;;5.67;4.83;;;;;;;;;;4968138;28;20268;-90
2022/11/19 11:48:06;;;;;;;4.20;3.80;;;;;;;;;;4968692;28;20205;-89
2022/11/19 11:50:36;;;;;;;5.33;4.83;;;;;;;;;;4959076;28;20201;-89
2022/11/19 11:53:08;;;;;;;4.57;4.17;;;;;;;;;;4966328;28;20201;-90
2022/11/19 11:55:37;;;;;;;4.87;4.13;;;;;;;;;;4967358;28;20225;-88
2022/11/19 11:58:07;;;;;;;3.30;3.00;;;;;;;;;;4963625;28;20243;-88
2022/11/19 12:00:37;;;;;;;4.87;4.27;;;;;;;;;;4967575;28;20211;-90
2022/11/19 12:03:07;;;;;;;5.13;4.70;;;;;;;;;;4966848;28;20207;-87
2022/11/19 12:05:48;;;;;;;3.50;3.20;;;;;;;;;;4966225;28;20209;-86
2022/11/19 12:08:22;;;;;;;7.63;3.90;;;;;;;;;;4965558;28;20232;-88
2022/11/19 12:10:59;;;;;;;6.77;4.33;;;;;;;;;;4965869;28;20223;-91
2022/11/19 12:13:38;;;;;;;5.00;4.50;;;;;;;;;;4964169;28;20224;-87
2022/11/19 12:16:09;;;;;;;5.40;4.73;;;;;;;;;;4974387;28;20238;-87
2022/11/19 12:18:44;;;;;;;5.47;4.97;;;;;;;;;;4964642;28;20288;-88
2022/11/19 12:21:12;;;;;;;5.70;3.73;;;;;;;;;;4964000;28;20209;-88
2022/11/19 12:23:56;;;;;;;5.00;3.83;;;;;;;;;;4978935;28;20216;-90
2022/11/19 12:26:29;;;;;;;4.03;3.73;;;;;;;;;;4966232;28;20201;-88
2022/11/19 12:29:03;;;;;;;4.83;4.33;;;;;;;;;;4966134;28;20296;-92
2022/11/19 12:31:44;;;;;;;4.47;4.07;;;;;;;;;;4964140;28;20291;-89
2022/11/19 12:34:29;;;;;;;2.80;2.50;;;;;;;;;;4982316;28;20229;-91
2022/11/19 12:37:01;;;;;;;5.10;3.93;;;;;;;;;;4967700;28;20262;-89
2022/11/19 12:39:36;;;;;;;4.57;4.17;;;;;;;;;;4966646;28;20207;-86
2022/11/19 12:42:11;;;;;;;5.70;5.13;;;;;;;;;;4963736;28;20208;-90
2022/11/19 12:44:47;;;;;;;5.63;4.37;;;;;;;;;;4961708;28;20200;-90
2022/11/19 12:47:24;;;;;;;3.67;3.07;;;;;;;;;;4967415;28;20468;-88
2022/11/19 12:50:10;;;;;;;4.63;4.10;;;;;;;;;;4969085;28;20205;-92
2022/11/19 12:52:55;;;;;;;3.83;3.40;;;;;;;;;;4967094;28;20209;-90
2022/11/19 12:55:27;;;;;;;4.57;3.87;;;;;;;;;;4960687;28;20213;-89
2022/11/19 12:58:01;;;;;;;3.47;3.03;;;;;;;;;;4965061;28;20219;-90
2022/11/19 13:00:31;;;;;;;5.13;4.03;;;;;;;;;;4972375;28;20218;-88
2022/11/19 13:03:11;;;;;;;3.83;3.00;;;;;;;;;;4966360;28;20208;-91
2022/11/19 13:05:44;;;;;;;4.23;3.83;;;;;;;;;;4975339;28;20236;-90
2022/11/19 13:08:14;;;;;;;3.30;3.00;;;;;;;;;;4976142;28;20205;-89
2022/11/19 13:10:45;;;;;;;6.13;3.23;;;;;;;;;;4977912;28;20287;-89
2022/11/19 13:13:15;;;;;;;3.93;3.53;;;;;;;;;;4975193;28;20293;-88
2022/11/19 13:15:45;;;;;;;2.63;2.43;;;;;;;;;;4973155;28;20197;-89
2022/11/19 13:18:15;;;;;;;3.40;3.10;;;;;;;;;;4977026;28;20224;-90
2022/11/19 13:20:48;;;;;;;3.27;3.00;;;;;;;;;;4976978;28;20244;-90
2022/11/19 13:23:19;;;;;;;4.23;3.70;;;;;;;;;;4975141;28;20239;-87
2022/11/19 13:25:53;;;;;;;7.33;4.43;;;;;;;;;;4974175;28;20223;-89
2022/11/19 13:28:27;;;;;;;5.37;3.40;;;;;;;;;;4984057;28;20206;-89
2022/11/19 13:31:03;;;;;;;3.97;3.33;;;;;;;;;;4967438;28;20211;-90
2022/11/19 13:33:35;;;;;;;4.07;2.93;;;;;;;;;;4976488;28;20203;-89
2022/11/19 13:36:08;;;;;;;5.50;3.27;;;;;;;;;;4976421;28;20229;-90
2022/11/19 13:38:43;;;;;;;3.50;3.20;;;;;;;;;;4976481;28;20247;-90
2022/11/19 13:41:13;;;;;;;3.77;3.40;;;;;;;;;;4957578;28;20214;-90
2022/11/19 13:46:31;;;;;;;2.70;2.50;;;;;;;;;;4957285;28;20331;-91
2022/11/19 13:49:02;;;;;;;5.27;4.03;;;;;;;;;;4976136;28;20198;-89
2022/11/19 13:51:34;;;;;;;4.90;3.90;;;;;;;;;;4976058;28;20209;-89
2022/11/19 13:54:03;;;;;;;3.50;3.20;;;;;;;;;;4976061;28;20209;-91
2022/11/19 13:56:39;;;;;;;4.63;2.80;;;;;;;;;;4974449;28;20207;-87
2022/11/19 13:59:09;;;;;;;3.03;2.73;;;;;;;;;;4976328;28;20203;-90
2022/11/19 14:01:44;;;;;;;3.73;2.77;;;;;;;;;;4976453;28;20207;-91
2022/11/19 14:04:20;;;;;;;2.00;1.90;;;;;;;;;;4976281;28;20270;-91
2022/11/19 14:06:57;;;;;;;3.57;3.27;;;;;;;;;;4992012;28;20234;-90
2022/11/19 14:09:30;;;;;;;2.77;2.57;;;;;;;;;;4972902;28;20231;-90
2022/11/19 14:12:12;;;;;;;1.70;1.60;;;;;;;;;;4964156;28;20235;-89
2022/11/19 14:26:51;;;;;;;4.50;4.10;;;;;;;;;;4975243;28;20204;-91
2022/11/19 14:29:43;;;;;;;3.40;3.10;;;;;;;;;;4974869;28;20236;-91
2022/11/19 14:32:27;;;;;;;5.43;3.23;;;;;;;;;;4974762;28;20218;-90
2022/11/19 14:35:12;;;;;;;3.13;2.87;;;;;;;;;;4976039;28;20233;-90
2022/11/19 14:37:42;;;;;;;3.23;2.93;;;;;;;;;;4975565;28;20262;-91
2022/11/19 14:40:15;;;;;;;4.27;3.60;;;;;;;;;;4971970;28;20204;-89
2022/11/19 14:45:40;;;;;;;4.93;3.07;;;;;;;;;;4971879;28;20219;-91
2022/11/19 14:48:09;;;;;;;1.93;1.83;;;;;;;;;;4975320;28;20203;-91
2022/11/19 14:50:37;;;;;;;2.57;2.37;;;;;;;;;;4976204;28;20258;-91
2022/11/19 14:53:05;;;;;;;3.77;2.90;;;;;;;;;;4975512;28;20205;-90
2022/11/19 14:55:35;;;;;;;2.57;2.37;;;;;;;;;;4975048;28;20259;-90
2022/11/19 14:58:05;;;;;;;3.27;2.77;;;;;;;;;;4975190;28;20282;-90
2022/11/19 15:00:35;;;;;;;2.87;2.27;;;;;;;;;;4976207;28;20211;-90
2022/11/19 15:03:04;;;;;;;5.83;3.50;;;;;;;;;;4974783;28;20205;-91
2022/11/19 15:05:34;;;;;;;2.80;2.60;;;;;;;;;;4962584;28;20229;-90
2022/11/19 15:08:21;;;;;;;3.37;3.17;;;;;;;;;;4974750;28;20214;-91
2022/11/19 15:11:03;;;;;;;2.33;2.13;;;;;;;;;;4976052;28;20209;-91
2022/11/19 15:13:32;;;;;;;2.53;2.33;;;;;;;;;;4974697;28;20224;-91
2022/11/19 15:16:09;;;;;;;2.27;2.00;;;;;;;;;;4974999;28;20573;-91
2022/11/19 15:18:52;;;;;;;1.93;1.83;;;;;;;;;;4971774;28;20225;-91
2022/11/19 15:21:26;;;;;;;2.53;2.27;;;;;;;;;;4973466;28;20200;-91
2022/11/19 15:24:01;;;;;;;1.73;1.67;;;;;;;;;;4974865;28;20207;-90
2022/11/19 15:26:34;;;;;;;2.73;2.40;;;;;;;;;;4961952;28;20226;-91
2022/11/19 15:29:09;;;;;;;1.97;1.87;;;;;;;;;;4974380;28;20200;-90
2022/11/19 15:32:03;;;;;;;2.67;2.47;;;;;;;;;;4975508;28;20218;-91
2022/11/19 15:34:46;;;;;;;4.13;2.17;;;;;;;;;;4974168;28;20238;-90